Fedora — SLKU — position and weather

sailwx.info

Track history (hours):
 
Tides and Currents Weather Stations Pressure Air Temp Water Temp Dewpoint Dewpoint Depression Visibility Wind Speed Wind Dir Waves Ship Positions

Fedora

Last reported at 2014-Oct-29 04:13 UTC. Time now 2014-Oct-31 16:34 UTC.
Position S 25°05' E 153°45'.

Length 228 m; draft 8.2 m.

Type: Cargo ship. MMSI: 266259000.

Date/timePositionNaut miles runAvg speedWind from/ knotsBaromVisibWave heightAir tempDewpointWater temp
2014-Oct-29 04:13S 25°05' E 153°45'1213.4
2014-Oct-29 03:17S 25°17' E 153°41'1114.2
2014-Oct-29 02:32S 25°27' E 153°38'1414.5
2014-Oct-29 01:33S 25°41' E 153°34'1414.6
2014-Oct-29 00:33S 25°55' E 153°30'1514.7
2014-Oct-28 23:33S 26°09' E 153°25'1514.8
2014-Oct-28 22:33S 26°23' E 153°21'1514.8
2014-Oct-28 21:33S 26°38' E 153°16'1211.9
2014-Oct-28 20:34S 26°48' E 153°11'1616.2
2014-Oct-28 19:33S 27°03' E 153°18'1514.7
2014-Oct-28 18:34S 27°17' E 153°14'6 5.9
2014-Oct-28 17:31S 27°23' E 153°10'0 0.0
2014-Oct-28 16:31S 27°23' E 153°10'0 0.0
2014-Oct-28 15:31S 27°23' E 153°10'0 0.0
2014-Oct-28 14:31S 27°23' E 153°10'0 0.0
2014-Oct-28 13:31S 27°23' E 153°10'0 0.0
2014-Oct-28 12:31S 27°23' E 153°10'0 0.0
2014-Oct-28 11:31S 27°23' E 153°10'0 0.0
2014-Oct-28 10:31S 27°23' E 153°10'0 0.0
2014-Oct-28 09:31S 27°23' E 153°10'0 0.0
2014-Oct-28 08:31S 27°23' E 153°10'0 0.0
2014-Oct-28 07:31S 27°23' E 153°10'6 6.4
2014-Oct-28 06:34S 27°17' E 153°14'1313.0
2014-Oct-28 05:34S 27°05' E 153°19'1716.6
2014-Oct-28 04:33S 26°51' E 153°09'9 8.8
2014-Oct-28 03:34S 26°43' E 153°13'1413.9
2014-Oct-28 02:34S 26°51' E 153°26'1413.6
2014-Oct-28 01:33S 27°02' E 153°35'1414.0
2014-Oct-28 00:34S 27°16' E 153°39'1414.0
2014-Oct-27 23:34S 27°30' E 153°40'1413.7
2014-Oct-27 22:34S 27°43' E 153°41'1313.2
2014-Oct-27 21:33S 27°57' E 153°42'1414.0
2014-Oct-27 20:33S 28°11' E 153°43'17214.0
2014-Oct-27 08:16S 31°00' E 153°11'1113.7
2014-Oct-27 07:28S 31°11' E 153°08'1614.0
2014-Oct-27 06:21S 31°26' E 153°03'1113.5
2014-Oct-27 05:31S 31°37' E 152°60'1313.5
2014-Oct-27 04:34S 31°49' E 152°56'1414.2
2014-Oct-27 03:33S 32°02' E 152°49'1414.0
2014-Oct-27 02:33S 32°15' E 152°43'1414.1
2014-Oct-27 01:33S 32°28' E 152°36'1514.8
2014-Oct-27 00:33S 32°40' E 152°27'1514.5
2014-Oct-26 23:33S 32°52' E 152°17'1514.7
2014-Oct-26 22:33S 33°05' E 152°07'1515.1
2014-Oct-26 21:33S 33°17' E 151°57'1514.8
2014-Oct-26 20:34S 33°29' E 151°47'1414.3
2014-Oct-26 19:33S 33°41' E 151°37'1514.5
2014-Oct-26 18:32S 33°53' E 151°28'245 8.1
2014-Oct-25 12:19S 37°45' E 149°49'8414.3
2014-Oct-25 06:26S 38°39' E 148°27'1615.1
2014-Oct-25 05:22S 38°48' E 148°10'2915.1
2014-Oct-25 03:27S 38°58' E 147°35'1414.8
2014-Oct-25 02:32S 39°03' E 147°19'9615.4
2014-Oct-24 20:18S 38°47' E 145°17'1417.1
2014-Oct-24 19:29S 38°39' E 145°02'109 3.7
2014-Oct-23 14:12S 38°50' E 142°42'914.5
2014-Oct-23 13:33S 38°49' E 142°30'1515.1
2014-Oct-23 12:33S 38°46' E 142°11'1514.7
2014-Oct-23 11:33S 38°44' E 141°53'2914.6
2014-Oct-23 09:32S 38°39' E 141°15'1515.1
2014-Oct-23 08:32S 38°36' E 140°56'1715.2
2014-Oct-23 07:23S 38°33' E 140°34'1415.3
2014-Oct-23 06:27S 38°31' E 140°16'  
Track history (hours):
 
Tides and Currents Weather Stations Pressure Air Temp Water Temp Dewpoint Dewpoint Depression Visibility Wind Speed Wind Dir Waves Ship Positions

Fedora

Last reported at 2014-Oct-29 04:13 UTC. Time now 2014-Oct-31 16:34 UTC.
Position S 25°05' E 153°45'.

Length 228 m; draft 8.2 m.

Type: Cargo ship. MMSI: 266259000.

Date/timePositionNaut miles runAvg speedWind from/ knotsBaromVisibWave heightAir tempDewpointWater temp
2014-Oct-29 04:13S 25°05' E 153°45'1213.4
2014-Oct-29 03:17S 25°17' E 153°41'1114.2
2014-Oct-29 02:32S 25°27' E 153°38'1414.5
2014-Oct-29 01:33S 25°41' E 153°34'1414.6
2014-Oct-29 00:33S 25°55' E 153°30'1514.7
2014-Oct-28 23:33S 26°09' E 153°25'1514.8
2014-Oct-28 22:33S 26°23' E 153°21'1514.8
2014-Oct-28 21:33S 26°38' E 153°16'1211.9
2014-Oct-28 20:34S 26°48' E 153°11'1616.2
2014-Oct-28 19:33S 27°03' E 153°18'1514.7
2014-Oct-28 18:34S 27°17' E 153°14'6 5.9
2014-Oct-28 17:31S 27°23' E 153°10'0 0.0
2014-Oct-28 16:31S 27°23' E 153°10'0 0.0
2014-Oct-28 15:31S 27°23' E 153°10'0 0.0
2014-Oct-28 14:31S 27°23' E 153°10'0 0.0
2014-Oct-28 13:31S 27°23' E 153°10'0 0.0
2014-Oct-28 12:31S 27°23' E 153°10'0 0.0
2014-Oct-28 11:31S 27°23' E 153°10'0 0.0
2014-Oct-28 10:31S 27°23' E 153°10'0 0.0
2014-Oct-28 09:31S 27°23' E 153°10'0 0.0
2014-Oct-28 08:31S 27°23' E 153°10'0 0.0
2014-Oct-28 07:31S 27°23' E 153°10'6 6.4
2014-Oct-28 06:34S 27°17' E 153°14'1313.0
2014-Oct-28 05:34S 27°05' E 153°19'1716.6
2014-Oct-28 04:33S 26°51' E 153°09'9 8.8
2014-Oct-28 03:34S 26°43' E 153°13'1413.9
2014-Oct-28 02:34S 26°51' E 153°26'1413.6
2014-Oct-28 01:33S 27°02' E 153°35'1414.0
2014-Oct-28 00:34S 27°16' E 153°39'1414.0
2014-Oct-27 23:34S 27°30' E 153°40'1413.7
2014-Oct-27 22:34S 27°43' E 153°41'1313.2
2014-Oct-27 21:33S 27°57' E 153°42'1414.0
2014-Oct-27 20:33S 28°11' E 153°43'17214.0
2014-Oct-27 08:16S 31°00' E 153°11'1113.7
2014-Oct-27 07:28S 31°11' E 153°08'1614.0
2014-Oct-27 06:21S 31°26' E 153°03'1113.5
2014-Oct-27 05:31S 31°37' E 152°60'1313.5
2014-Oct-27 04:34S 31°49' E 152°56'1414.2
2014-Oct-27 03:33S 32°02' E 152°49'1414.0
2014-Oct-27 02:33S 32°15' E 152°43'1414.1
2014-Oct-27 01:33S 32°28' E 152°36'1514.8
2014-Oct-27 00:33S 32°40' E 152°27'1514.5
2014-Oct-26 23:33S 32°52' E 152°17'1514.7
2014-Oct-26 22:33S 33°05' E 152°07'1515.1
2014-Oct-26 21:33S 33°17' E 151°57'1514.8
2014-Oct-26 20:34S 33°29' E 151°47'1414.3
2014-Oct-26 19:33S 33°41' E 151°37'1514.5
2014-Oct-26 18:32S 33°53' E 151°28'245 8.1
2014-Oct-25 12:19S 37°45' E 149°49'8414.3
2014-Oct-25 06:26S 38°39' E 148°27'1615.1
2014-Oct-25 05:22S 38°48' E 148°10'2915.1
2014-Oct-25 03:27S 38°58' E 147°35'1414.8
2014-Oct-25 02:32S 39°03' E 147°19'9615.4
2014-Oct-24 20:18S 38°47' E 145°17'1417.1
2014-Oct-24 19:29S 38°39' E 145°02'109 3.7
2014-Oct-23 14:12S 38°50' E 142°42'914.5
2014-Oct-23 13:33S 38°49' E 142°30'1515.1
2014-Oct-23 12:33S 38°46' E 142°11'1514.7
2014-Oct-23 11:33S 38°44' E 141°53'2914.6
2014-Oct-23 09:32S 38°39' E 141°15'1515.1
2014-Oct-23 08:32S 38°36' E 140°56'1715.2
2014-Oct-23 07:23S 38°33' E 140°34'1415.3
2014-Oct-23 06:27S 38°31' E 140°16'  

Dump ship's entire track history